Time;durP1;ratioP1;P1;durP2;ratioP2;P2;SDS_P1;SDS_P2;PMS_P1;PMS_P2;Temp;Humidity;BMP_temperature;BMP_pressure;BME280_temperature;BME280_humidity;BME280_pressure;Samples;Min_cycle;Max_cycle;Signal;HPM_P1;HPM_P2
2024/04/15 00:00:07;;;;;;;5.13;2.57;;;11.70;1.00;;;;;;6353805;22;20416;-88
2024/04/15 00:02:36;;;;;;;3.87;2.20;;;11.50;1.00;;;;;;6355517;22;20542;-88
2024/04/15 00:05:02;;;;;;;3.10;2.67;;;11.40;1.00;;;;;;6339476;22;20918;-87
2024/04/15 00:07:32;;;;;;;3.17;2.23;;;11.50;1.00;;;;;;6334970;22;20524;-87
2024/04/15 00:09:57;;;;;;;2.70;1.80;;;11.50;1.00;;;;;;6334196;22;20472;-87
2024/04/15 00:12:26;;;;;;;7.07;2.20;;;11.40;1.00;;;;;;6350500;22;21063;-88
2024/04/15 00:14:52;;;;;;;7.47;2.10;;;11.30;1.00;;;;;;6349082;22;20477;-88
2024/04/15 00:17:24;;;;;;;3.23;1.50;;;11.50;1.00;;;;;;6339659;22;20543;-87
2024/04/15 00:19:51;;;;;;;4.20;1.60;;;11.40;1.00;;;;;;6336038;22;20456;-87
2024/04/15 00:22:20;;;;;;;2.93;1.50;;;11.30;1.00;;;;;;6336885;22;20457;-88
2024/04/15 00:24:46;;;;;;;5.30;2.30;;;11.20;1.00;;;;;;6335083;22;20452;-87
2024/04/15 00:27:15;;;;;;;3.73;1.80;;;11.20;1.00;;;;;;6334583;22;20514;-89
2024/04/15 00:29:41;;;;;;;3.70;1.77;;;11.10;1.00;;;;;;6334698;22;20564;-88
2024/04/15 00:32:09;;;;;;;8.13;1.87;;;11.00;1.00;;;;;;6343006;22;20484;-87
2024/04/15 00:34:38;;;;;;;4.77;2.10;;;10.90;1.00;;;;;;6346682;22;20456;-88
2024/04/15 00:37:06;;;;;;;4.40;2.00;;;11.10;1.00;;;;;;6335429;22;20480;-88
2024/04/15 00:39:32;;;;;;;11.03;2.53;;;10.90;1.00;;;;;;6341494;22;20468;-87
2024/04/15 00:42:01;;;;;;;4.83;2.00;;;10.80;1.00;;;;;;6344326;22;20456;-87
2024/04/15 00:44:31;;;;;;;5.10;2.30;;;10.80;1.00;;;;;;6341716;22;20578;-87
2024/04/15 00:46:59;;;;;;;4.90;3.77;;;10.80;1.00;;;;;;6340790;22;20452;-87
2024/04/15 00:49:25;;;;;;;6.93;2.23;;;10.90;1.00;;;;;;6342696;22;21017;-87
2024/04/15 00:51:57;;;;;;;7.37;2.33;;;10.90;1.00;;;;;;6339492;22;20440;-87
2024/04/15 00:54:23;;;;;;;3.83;2.30;;;10.90;1.00;;;;;;6348727;22;20432;-88
2024/04/15 00:56:52;;;;;;;4.93;1.50;;;10.80;1.00;;;;;;6354593;22;20456;-87
2024/04/15 00:59:18;;;;;;;5.10;2.13;;;10.80;1.00;;;;;;6355925;22;20436;-87
2024/04/15 01:01:47;;;;;;;5.33;1.97;;;10.80;1.00;;;;;;6349881;22;20440;-87
2024/04/15 01:04:13;;;;;;;3.40;2.33;;;10.70;1.00;;;;;;6346758;22;20433;-88
2024/04/15 01:06:42;;;;;;;4.07;2.00;;;10.70;1.00;;;;;;6340962;22;20524;-87
2024/04/15 01:09:11;;;;;;;9.20;1.90;;;10.80;1.00;;;;;;6346302;22;20496;-87
2024/04/15 01:11:40;;;;;;;3.40;1.80;;;10.70;1.00;;;;;;6340100;22;20485;-87
2024/04/15 01:14:06;;;;;;;3.97;2.00;;;10.70;1.00;;;;;;6355125;22;20445;-88
2024/04/15 01:16:38;;;;;;;5.03;2.00;;;10.70;1.00;;;;;;6355874;22;20508;-88
2024/04/15 01:19:04;;;;;;;5.40;2.27;;;10.60;1.00;;;;;;6343392;22;20506;-87
2024/04/15 01:21:33;;;;;;;6.17;1.63;;;10.50;1.00;;;;;;6335115;22;20448;-87
2024/04/15 01:24:02;;;;;;;4.00;1.73;;;10.50;1.00;;;;;;6334706;22;20494;-87
2024/04/15 01:29:08;;;;;;;5.07;2.00;;;10.80;1.00;;;;;;6353169;22;20484;-84
2024/04/15 01:31:34;;;;;;;7.73;2.20;;;10.50;1.00;;;;;;6354861;22;20473;-84
2024/04/15 01:34:02;;;;;;;3.33;1.60;;;10.40;1.00;;;;;;6355463;22;20449;-85
2024/04/15 01:36:28;;;;;;;4.33;2.00;;;10.50;1.00;;;;;;6355270;22;20512;-84
2024/04/15 01:38:56;;;;;;;6.50;2.30;;;10.50;1.00;;;;;;6304999;22;20450;-84
2024/04/15 01:41:25;;;;;;;7.23;2.27;;;10.60;1.00;;;;;;6294423;22;20478;-85
2024/04/15 01:43:53;;;;;;;4.60;2.07;;;10.50;1.00;;;;;;6300200;22;20466;-83
2024/04/15 01:46:19;;;;;;;6.43;1.73;;;10.60;1.00;;;;;;6307060;22;20410;-83
2024/04/15 01:48:48;;;;;;;7.00;2.17;;;10.60;1.00;;;;;;6305159;22;20441;-85
2024/04/15 01:51:14;;;;;;;8.23;2.50;;;10.60;1.00;;;;;;6304114;22;20458;-85
2024/04/15 01:53:42;;;;;;;3.30;2.20;;;10.60;1.00;;;;;;6300050;22;20848;-85
2024/04/15 01:56:08;;;;;;;3.00;2.03;;;10.60;1.00;;;;;;6300421;22;20467;-85
2024/04/15 01:58:39;;;;;;;6.13;2.47;;;10.50;1.00;;;;;;6298933;22;20558;-85
2024/04/15 02:01:05;;;;;;;8.17;3.00;;;10.40;1.00;;;;;;6298634;22;20438;-86
2024/04/15 02:03:34;;;;;;;7.00;2.00;;;10.50;1.00;;;;;;6294475;22;20502;-86
2024/04/15 02:06:00;;;;;;;7.57;1.90;;;10.50;1.00;;;;;;6295491;22;20224;-86
2024/04/15 02:08:28;;;;;;;3.97;1.93;;;10.80;1.00;;;;;;6301062;22;20526;-86
2024/04/15 02:10:54;;;;;;;5.30;1.70;;;10.70;1.00;;;;;;6302099;22;20486;-86
2024/04/15 02:13:23;;;;;;;5.50;1.87;;;10.60;1.00;;;;;;6296386;22;20466;-86
2024/04/15 02:15:51;;;;;;;4.03;1.60;;;10.60;1.00;;;;;;6297004;22;20426;-86
2024/04/15 02:18:20;;;;;;;5.27;1.83;;;10.60;1.00;;;;;;6296017;22;20521;-86
2024/04/15 02:20:46;;;;;;;5.10;2.00;;;10.70;1.00;;;;;;6294716;22;20562;-86
2024/04/15 02:23:14;;;;;;;8.77;2.77;;;10.80;1.00;;;;;;6291616;22;20458;-86
2024/04/15 02:25:42;;;;;;;5.00;2.43;;;10.60;1.00;;;;;;6290177;22;20441;-85
2024/04/15 02:28:10;;;;;;;5.53;1.83;;;10.60;1.00;;;;;;6260724;22;20483;-84
2024/04/15 02:30:36;;;;;;;2.83;1.90;;;10.50;1.00;;;;;;6248850;23;20519;-85
2024/04/15 02:33:07;;;;;;;6.23;2.17;;;10.30;1.00;;;;;;6243798;23;20451;-84
2024/04/15 02:35:33;;;;;;;4.03;2.17;;;10.40;1.00;;;;;;6243527;23;20520;-87
2024/04/15 02:38:02;;;;;;;5.83;2.40;;;10.50;1.00;;;;;;6243996;22;21011;-84
2024/04/15 02:40:28;;;;;;;5.90;2.50;;;10.40;1.00;;;;;;6244225;23;20519;-84
2024/04/15 02:42:56;;;;;;;6.00;2.07;;;10.30;1.00;;;;;;6242758;23;20545;-84
2024/04/15 02:45:22;;;;;;;7.90;2.90;;;10.30;1.00;;;;;;6243117;23;20467;-84
2024/04/15 02:47:51;;;;;;;5.20;1.93;;;10.40;1.00;;;;;;6243111;22;20533;-84
2024/04/15 02:50:19;;;;;;;8.13;2.83;;;10.40;1.00;;;;;;6241490;23;20792;-87
2024/04/15 02:52:48;;;;;;;10.67;5.20;;;10.40;1.00;;;;;;6242983;23;20439;-86
2024/04/15 02:55:14;;;;;;;5.20;2.30;;;10.40;1.00;;;;;;6243173;23;20492;-86
2024/04/15 02:57:42;;;;;;;7.60;3.07;;;10.30;1.00;;;;;;6247932;22;20451;-85
2024/04/15 03:00:09;;;;;;;4.67;1.77;;;10.40;1.00;;;;;;6239584;23;20436;-83
2024/04/15 03:02:37;;;;;;;2.60;2.23;;;10.40;1.00;;;;;;6237612;23;20451;-83
2024/04/15 03:05:04;;;;;;;3.10;1.70;;;10.40;1.00;;;;;;6239138;23;20451;-83
2024/04/15 03:07:35;;;;;;;3.20;2.20;;;10.40;1.00;;;;;;6239565;22;20512;-84
2024/04/15 03:10:01;;;;;;;3.50;2.20;;;10.30;1.00;;;;;;6241949;23;20439;-84
2024/04/15 03:12:29;;;;;;;4.97;1.83;;;10.30;1.00;;;;;;6241214;23;20443;-84
2024/04/15 03:14:55;;;;;;;6.77;2.00;;;10.20;1.00;;;;;;6241073;23;20491;-85
2024/04/15 03:17:24;;;;;;;2.10;1.63;;;10.20;1.00;;;;;;6241060;22;20558;-86
2024/04/15 03:19:51;;;;;;;4.33;2.10;;;10.30;1.00;;;;;;6240722;23;20431;-84
2024/04/15 03:22:20;;;;;;;2.60;1.67;;;10.20;1.00;;;;;;6241380;23;20435;-86
2024/04/15 03:24:50;;;;;;;7.90;2.00;;;10.30;1.00;;;;;;6242101;23;20508;-85
2024/04/15 03:27:19;;;;;;;3.73;1.90;;;10.10;1.00;;;;;;6251415;22;20448;-81
2024/04/15 03:29:45;;;;;;;6.07;2.00;;;10.30;1.00;;;;;;6257909;22;20499;-83
2024/04/15 03:32:13;;;;;;;4.70;1.93;;;10.30;1.00;;;;;;6256681;22;20467;-86
2024/04/15 03:34:39;;;;;;;7.67;1.90;;;10.20;1.00;;;;;;6241001;23;20470;-86
2024/04/15 03:37:08;;;;;;;5.70;1.63;;;10.20;1.00;;;;;;6241557;22;20548;-85
2024/04/15 03:39:33;;;;;;;4.27;1.90;;;10.20;1.00;;;;;;6241937;23;20435;-86
2024/04/15 03:42:42;;;;;;;6.77;1.90;;;10.20;1.00;;;;;;6244143;23;20518;-84
2024/04/15 03:45:11;;;;;;;6.60;1.67;;;9.60;1.00;;;;;;6193279;23;20427;-85
2024/04/15 03:47:36;;;;;;;3.27;1.63;;;10.20;1.00;;;;;;6242447;22;20464;-85
2024/04/15 03:50:06;;;;;;;5.33;1.97;;;10.10;1.00;;;;;;6242572;23;20491;-85
2024/04/15 03:52:31;;;;;;;2.60;1.77;;;10.20;1.00;;;;;;6241445;23;21001;-85
2024/04/15 03:55:00;;;;;;;4.70;1.77;;;10.20;1.00;;;;;;6241345;23;20458;-85
2024/04/15 03:57:28;;;;;;;4.30;1.87;;;10.20;1.00;;;;;;6241375;22;20448;-85
2024/04/15 03:59:57;;;;;;;4.33;1.77;;;10.20;1.00;;;;;;6241613;23;20435;-85
2024/04/15 04:02:23;;;;;;;5.30;2.00;;;10.20;1.00;;;;;;6242589;23;20968;-85
2024/04/15 04:04:52;;;;;;;9.53;2.13;;;10.30;1.00;;;;;;6242500;23;20443;-85
2024/04/15 04:07:18;;;;;;;4.07;2.37;;;10.30;1.00;;;;;;6243584;22;20494;-85
2024/04/15 04:09:47;;;;;;;7.80;2.53;;;10.20;1.00;;;;;;6244510;23;20476;-85
2024/04/15 04:12:13;;;;;;;3.80;1.87;;;10.40;1.00;;;;;;6242825;23;20817;-85
2024/04/15 04:14:44;;;;;;;9.67;2.73;;;10.30;1.00;;;;;;6251178;23;20467;-85
2024/04/15 04:17:09;;;;;;;4.30;2.10;;;10.30;1.00;;;;;;6250949;22;20491;-85
2024/04/15 04:19:38;;;;;;;4.30;2.07;;;10.20;1.00;;;;;;6249035;23;20522;-85
2024/04/15 04:22:04;;;;;;;6.07;2.77;;;10.20;1.00;;;;;;6244124;23;20439;-85
2024/04/15 04:24:33;;;;;;;4.07;2.30;;;10.20;1.00;;;;;;6241775;23;20536;-85
2024/04/15 04:26:59;;;;;;;6.23;2.40;;;10.20;1.00;;;;;;6241271;22;20467;-85
2024/04/15 04:29:28;;;;;;;18.63;3.83;;;10.30;1.00;;;;;;6241635;23;20513;-85
2024/04/15 04:31:56;;;;;;;4.20;1.73;;;10.20;1.00;;;;;;6242652;23;20447;-85
2024/04/15 04:34:25;;;;;;;5.60;2.07;;;10.20;1.00;;;;;;6242164;23;21018;-85
2024/04/15 04:36:51;;;;;;;8.53;2.90;;;10.20;1.00;;;;;;6242152;22;20491;-85
2024/04/15 04:39:19;;;;;;;10.60;2.40;;;10.00;1.00;;;;;;6244709;23;20471;-85
2024/04/15 04:41:45;;;;;;;3.00;1.90;;;10.00;1.00;;;;;;6255616;22;20484;-85
2024/04/15 04:44:14;;;;;;;6.13;2.83;;;10.00;1.00;;;;;;6256674;23;20510;-86
2024/04/15 04:46:42;;;;;;;4.20;1.97;;;10.00;1.00;;;;;;6259375;22;20498;-86
2024/04/15 04:49:13;;;;;;;6.97;3.57;;;10.00;1.00;;;;;;6259784;22;20443;-87
2024/04/15 04:51:39;;;;;;;3.30;2.40;;;10.00;1.00;;;;;;6259311;22;20467;-87
2024/04/15 04:54:07;;;;;;;9.47;2.60;;;10.00;1.00;;;;;;6257924;22;20517;-87
2024/04/15 04:56:33;;;;;;;5.20;2.60;;;9.90;1.00;;;;;;6253787;22;20773;-87
2024/04/15 04:59:02;;;;;;;7.30;3.20;;;9.90;1.00;;;;;;6251581;23;20515;-87
2024/04/15 05:01:28;;;;;;;8.30;3.03;;;9.90;1.00;;;;;;6250313;23;20481;-87
2024/04/15 05:03:57;;;;;;;4.70;2.13;;;9.80;1.00;;;;;;6250456;23;20467;-87
2024/04/15 05:06:25;;;;;;;5.47;2.67;;;9.90;1.00;;;;;;6250887;23;20447;-87
2024/04/15 05:08:54;;;;;;;7.33;2.73;;;9.90;1.00;;;;;;6248307;22;20812;-87
2024/04/15 05:11:19;;;;;;;4.70;2.40;;;9.90;1.00;;;;;;6259229;22;20463;-86
2024/04/15 05:13:48;;;;;;;4.63;2.60;;;10.00;1.00;;;;;;6259856;22;20524;-85
2024/04/15 05:16:14;;;;;;;8.57;2.40;;;9.80;1.00;;;;;;6259744;22;20496;-86
2024/04/15 05:18:43;;;;;;;14.73;2.67;;;9.80;1.00;;;;;;6259440;22;20507;-86
2024/04/15 05:21:11;;;;;;;11.77;6.13;;;10.00;1.00;;;;;;6254845;23;20435;-86
2024/04/15 05:23:42;;;;;;;5.13;2.87;;;10.00;1.00;;;;;;6247509;23;20447;-86
2024/04/15 05:26:08;;;;;;;5.27;2.57;;;10.10;1.00;;;;;;6239531;23;20529;-87
2024/04/15 05:28:37;;;;;;;6.03;3.13;;;10.10;1.00;;;;;;6238483;22;20535;-87
2024/04/15 05:31:03;;;;;;;4.60;2.13;;;10.10;1.00;;;;;;6239785;23;20463;-87
2024/04/15 05:33:32;;;;;;;3.57;2.30;;;10.20;1.00;;;;;;6241986;23;20499;-87
2024/04/15 05:35:58;;;;;;;12.97;2.70;;;10.30;1.00;;;;;;6240731;23;20436;-86
2024/04/15 05:38:27;;;;;;;9.73;3.03;;;10.20;1.00;;;;;;6240642;22;20794;-87
2024/04/15 05:40:55;;;;;;;9.87;2.83;;;10.30;1.00;;;;;;6242434;23;20578;-86
2024/04/15 05:43:25;;;;;;;5.90;2.57;;;10.30;1.00;;;;;;6242932;23;20467;-87
2024/04/15 05:45:52;;;;;;;4.90;2.67;;;10.10;1.00;;;;;;6244394;23;20432;-86
2024/04/15 05:48:20;;;;;;;10.80;4.80;;;10.40;1.00;;;;;;6246204;22;20503;-86
2024/04/15 05:50:46;;;;;;;5.40;2.57;;;10.20;1.00;;;;;;6244699;23;20467;-87
2024/04/15 05:53:15;;;;;;;9.80;3.43;;;10.20;1.00;;;;;;6244744;23;20528;-87
2024/04/15 05:55:41;;;;;;;6.70;2.87;;;10.20;1.00;;;;;;6250960;23;20479;-87
2024/04/15 05:58:13;;;;;;;9.30;2.63;;;10.20;1.00;;;;;;6249596;22;20556;-85
2024/04/15 06:00:39;;;;;;;5.90;2.67;;;10.20;1.00;;;;;;6247864;23;20912;-87
2024/04/15 06:03:07;;;;;;;11.20;7.67;;;10.10;1.00;;;;;;6242419;23;20439;-86
2024/04/15 06:05:34;;;;;;;15.40;3.63;;;10.20;1.00;;;;;;6242461;23;20945;-87
2024/04/15 06:08:03;;;;;;;7.57;3.70;;;10.30;1.00;;;;;;6243445;22;20463;-87
2024/04/15 06:10:29;;;;;;;4.83;2.23;;;10.20;1.00;;;;;;6244779;23;20431;-87
2024/04/15 06:12:57;;;;;;;7.20;2.53;;;10.30;1.00;;;;;;6244948;23;20455;-86
2024/04/15 06:15:26;;;;;;;11.70;2.27;;;10.20;1.00;;;;;;6246083;23;20985;-87
2024/04/15 06:17:55;;;;;;;4.90;2.07;;;10.20;1.00;;;;;;6243160;22;20487;-86
2024/04/15 06:20:21;;;;;;;5.53;2.47;;;10.10;1.00;;;;;;6242133;23;20466;-86
2024/04/15 06:22:49;;;;;;;7.83;2.17;;;10.10;1.00;;;;;;6242618;23;20836;-86
2024/04/15 06:25:15;;;;;;;7.90;2.20;;;10.30;1.00;;;;;;6242053;23;20499;-86
2024/04/15 06:27:44;;;;;;;2.50;1.73;;;10.30;1.00;;;;;;6241572;22;20522;-87
2024/04/15 06:30:10;;;;;;;5.20;2.10;;;10.50;1.00;;;;;;6242074;23;20459;-87
2024/04/15 06:32:41;;;;;;;5.53;2.10;;;10.20;1.00;;;;;;6241631;23;20466;-86
2024/04/15 06:35:07;;;;;;;10.07;3.30;;;10.20;1.00;;;;;;6243236;23;20519;-87
2024/04/15 06:37:36;;;;;;;11.57;3.30;;;10.30;1.00;;;;;;6241058;22;20455;-88
2024/04/15 06:40:02;;;;;;;5.17;2.10;;;10.30;1.00;;;;;;6240747;23;20510;-87
2024/04/15 06:42:31;;;;;;;5.87;2.80;;;10.20;1.00;;;;;;6241114;23;20447;-88
2024/04/15 06:44:56;;;;;;;11.93;1.83;;;10.30;1.00;;;;;;6241061;23;20506;-87
2024/04/15 06:47:25;;;;;;;6.83;2.50;;;10.40;1.00;;;;;;6240655;22;20455;-87
2024/04/15 06:49:54;;;;;;;4.43;2.07;;;10.30;1.00;;;;;;6240113;23;20505;-87
2024/04/15 06:52:22;;;;;;;6.50;2.93;;;10.40;1.00;;;;;;6240356;23;20896;-87
2024/04/15 06:54:48;;;;;;;10.80;2.20;;;10.50;1.00;;;;;;6241799;23;20501;-87
2024/04/15 06:57:16;;;;;;;3.33;2.30;;;10.60;1.00;;;;;;6240748;22;20463;-88
2024/04/15 06:59:42;;;;;;;4.13;1.80;;;10.80;1.00;;;;;;6242921;22;20491;-86
2024/04/15 07:02:13;;;;;;;9.17;3.07;;;10.90;1.00;;;;;;6258617;22;20435;-86
2024/04/15 07:04:39;;;;;;;6.10;2.50;;;10.80;1.00;;;;;;6258226;22;20436;-85
2024/04/15 07:07:10;;;;;;;2.67;2.47;;;10.80;1.00;;;;;;6257951;22;20464;-87
2024/04/15 07:09:36;;;;;;;5.40;2.20;;;10.90;1.00;;;;;;6248610;22;20455;-87
2024/04/15 07:12:04;;;;;;;7.83;2.30;;;10.90;1.00;;;;;;6244628;23;20466;-88
2024/04/15 07:14:30;;;;;;;6.70;2.27;;;11.00;1.00;;;;;;6243718;23;20487;-88
2024/04/15 07:17:00;;;;;;;4.40;2.30;;;11.00;1.00;;;;;;6241126;22;20539;-87
2024/04/15 07:19:26;;;;;;;6.60;3.30;;;11.20;1.00;;;;;;6240997;23;20504;-87
2024/04/15 07:21:55;;;;;;;5.90;3.10;;;11.40;1.00;;;;;;6240957;23;20451;-87
2024/04/15 07:24:23;;;;;;;7.83;2.60;;;11.50;1.00;;;;;;6240863;23;20427;-87
2024/04/15 07:26:52;;;;;;;6.07;3.30;;;11.50;1.00;;;;;;6240814;22;20535;-87
2024/04/15 07:29:18;;;;;;;4.13;2.90;;;11.50;1.00;;;;;;6240402;23;20435;-87
2024/04/15 07:31:47;;;;;;;9.73;3.47;;;11.40;1.00;;;;;;6240558;23;20482;-87
2024/04/15 07:34:13;;;;;;;5.80;2.40;;;11.50;1.00;;;;;;6241695;23;20478;-87
2024/04/15 07:36:41;;;;;;;4.50;2.30;;;11.40;1.00;;;;;;6240807;22;20475;-86
2024/04/15 07:39:07;;;;;;;5.67;2.80;;;11.60;1.00;;;;;;6246715;23;20490;-87
2024/04/15 07:41:38;;;;;;;11.00;3.40;;;11.80;1.00;;;;;;6248896;23;20466;-87
2024/04/15 07:44:04;;;;;;;4.70;2.33;;;11.70;1.00;;;;;;6245087;23;20508;-87
2024/04/15 07:46:33;;;;;;;10.93;2.77;;;11.60;1.00;;;;;;6243554;22;20451;-87
2024/04/15 07:48:59;;;;;;;5.00;3.00;;;11.80;1.00;;;;;;6242994;23;20517;-87
2024/04/15 07:51:27;;;;;;;13.87;3.50;;;11.80;1.00;;;;;;6243428;23;20459;-87
2024/04/15 07:53:54;;;;;;;4.67;2.97;;;11.60;1.00;;;;;;6242168;23;20440;-87
2024/04/15 07:56:22;;;;;;;9.50;3.27;;;11.30;1.00;;;;;;6241477;23;20466;-87
2024/04/15 07:58:51;;;;;;;5.83;3.30;;;11.60;1.00;;;;;;6241006;22;20455;-87
2024/04/15 08:01:19;;;;;;;3.97;3.40;;;11.90;1.00;;;;;;6241030;23;20480;-87
2024/04/15 08:03:45;;;;;;;7.73;3.70;;;11.80;1.00;;;;;;6238270;23;20479;-87
2024/04/15 08:06:14;;;;;;;7.63;5.60;;;11.60;1.00;;;;;;6238351;23;20511;-87
2024/04/15 08:08:40;;;;;;;6.60;4.70;;;11.40;1.00;;;;;;6237359;22;21051;-87
2024/04/15 08:11:08;;;;;;;7.20;3.73;;;11.50;1.00;;;;;;6238070;23;20471;-87
2024/04/15 08:13:34;;;;;;;3.10;2.90;;;11.70;1.00;;;;;;6239902;23;20547;-87
2024/04/15 08:16:06;;;;;;;6.13;3.27;;;11.80;1.00;;;;;;6242685;23;20462;-87
2024/04/15 08:18:32;;;;;;;4.90;3.43;;;12.00;1.00;;;;;;6243967;22;20502;-87
2024/04/15 08:21:01;;;;;;;4.00;3.30;;;12.10;1.00;;;;;;6244105;23;20435;-88
2024/04/15 08:23:27;;;;;;;7.40;3.50;;;12.10;1.00;;;;;;6244860;23;20435;-87
2024/04/15 08:25:56;;;;;;;6.13;3.80;;;11.90;1.00;;;;;;6241386;23;20525;-87
2024/04/15 08:28:23;;;;;;;4.50;3.40;;;11.90;1.00;;;;;;6251325;22;20533;-87
2024/04/15 08:30:51;;;;;;;3.90;2.97;;;12.20;1.00;;;;;;6252266;23;20479;-86
2024/04/15 08:33:20;;;;;;;4.70;3.50;;;12.20;1.00;;;;;;6253400;22;20451;-86
2024/04/15 08:35:49;;;;;;;6.77;3.87;;;12.10;1.00;;;;;;6249573;23;20758;-87
2024/04/15 08:38:15;;;;;;;5.23;3.60;;;;;;;;;;6242224;22;20494;-86
2024/04/15 08:40:51;;;;;;;5.37;3.30;;;12.40;1.00;;;;;;6244939;23;20451;-86
2024/04/15 08:43:21;;;;;;;8.70;3.37;;;12.70;2.60;;;;;;6259222;22;20447;-86
2024/04/15 08:45:55;;;;;;;12.70;5.20;;;12.70;1.00;;;;;;6259712;22;20423;-85
2024/04/15 08:48:25;;;;;;;7.83;3.50;;;12.80;1.00;;;;;;6259504;22;20459;-86
2024/04/15 08:50:53;;;;;;;5.03;3.37;;;12.50;1.00;;;;;;6259414;22;20520;-86
2024/04/15 08:53:20;;;;;;;6.67;3.30;;;12.50;1.00;;;;;;6259561;22;20435;-86
2024/04/15 08:55:49;;;;;;;4.70;3.10;;;12.50;1.00;;;;;;6253452;23;20554;-87
2024/04/15 08:58:17;;;;;;;6.70;3.30;;;12.50;1.00;;;;;;6246755;22;20447;-88
2024/04/15 09:00:47;;;;;;;4.00;3.60;;;12.60;1.00;;;;;;6240766;23;20466;-87
2024/04/15 09:03:14;;;;;;;4.50;3.03;;;12.80;1.00;;;;;;6241671;23;20462;-88
2024/04/15 09:05:46;;;;;;;3.83;3.30;;;12.60;1.00;;;;;;6241523;23;20451;-86
2024/04/15 09:08:12;;;;;;;6.90;4.13;;;12.80;1.00;;;;;;6247903;22;20527;-87
2024/04/15 09:10:40;;;;;;;4.60;3.00;;;12.80;1.00;;;;;;6243895;23;20519;-87
2024/04/15 09:13:09;;;;;;;2.97;2.73;;;12.90;1.00;;;;;;6242276;23;20575;-87
2024/04/15 09:15:38;;;;;;;6.20;3.50;;;13.00;1.00;;;;;;6242157;23;20563;-87
2024/04/15 09:18:06;;;;;;;7.83;3.50;;;13.00;1.00;;;;;;6242399;22;20451;-87
2024/04/15 09:20:34;;;;;;;5.83;3.40;;;13.00;1.00;;;;;;6251516;23;20459;-87
2024/04/15 09:23:09;;;;;;;6.77;3.77;;;13.20;1.00;;;;;;6253610;22;20455;-87
2024/04/15 09:25:38;;;;;;;9.33;3.57;;;13.10;1.00;;;;;;6259310;22;20466;-86
2024/04/15 09:28:04;;;;;;;9.67;5.57;;;13.00;1.00;;;;;;6258792;22;20432;-86
2024/04/15 09:30:33;;;;;;;8.37;3.83;;;13.00;1.00;;;;;;6258679;22;20447;-87
2024/04/15 09:33:00;;;;;;;4.40;2.30;;;13.00;1.00;;;;;;6249082;23;20512;-86
2024/04/15 09:35:33;;;;;;;6.47;3.37;;;13.10;1.00;;;;;;6256100;22;20432;-87
2024/04/15 09:38:04;;;;;;;5.70;3.00;;;13.10;1.00;;;;;;6255735;22;20482;-87
2024/04/15 09:40:34;;;;;;;2.83;2.50;;;13.40;1.00;;;;;;6252496;23;20824;-87
2024/04/15 09:43:01;;;;;;;4.63;2.93;;;13.40;1.00;;;;;;6245643;23;20492;-87
2024/04/15 09:45:31;;;;;;;5.40;3.10;;;13.30;1.00;;;;;;6248902;23;20551;-86
2024/04/15 09:47:59;;;;;;;4.57;3.40;;;13.20;1.00;;;;;;6248598;22;20455;-87
2024/04/15 09:50:30;;;;;;;5.03;3.17;;;13.40;1.00;;;;;;6246931;23;20507;-87
2024/04/15 09:52:58;;;;;;;3.97;2.93;;;13.60;1.00;;;;;;6244052;23;20507;-87
2024/04/15 09:55:36;;;;;;;3.27;2.50;;;13.70;1.00;;;;;;6257425;22;20455;-88
2024/04/15 09:58:04;;;;;;;3.60;3.37;;;13.60;1.00;;;;;;6257983;22;20463;-87
2024/04/15 10:00:36;;;;;;;6.73;3.70;;;13.40;1.00;;;;;;6255799;22;20462;-87
2024/04/15 10:03:08;;;;;;;9.83;7.77;;;13.60;1.00;;;;;;6249568;23;20469;-86
2024/04/15 10:05:41;;;;;;;3.37;3.00;;;13.60;1.00;;;;;;6250712;23;20566;-86
2024/04/15 10:08:08;;;;;;;4.80;2.33;;;13.60;1.00;;;;;;6244284;22;20836;-87
2024/04/15 10:10:41;;;;;;;3.97;3.00;;;13.40;1.00;;;;;;6243536;23;20474;-87
2024/04/15 10:13:08;;;;;;;5.53;3.07;;;13.30;1.00;;;;;;6243407;23;20435;-87
2024/04/15 10:15:37;;;;;;;6.90;2.77;;;13.30;1.00;;;;;;6244969;23;20475;-87
2024/04/15 10:18:05;;;;;;;4.00;2.63;;;13.10;1.00;;;;;;6243689;22;20795;-87
2024/04/15 10:20:36;;;;;;;3.97;2.90;;;13.10;1.00;;;;;;6244150;23;20941;-87
2024/04/15 10:23:06;;;;;;;4.67;2.90;;;13.40;1.00;;;;;;6242711;23;20455;-88
2024/04/15 10:25:35;;;;;;;2.57;2.33;;;13.50;1.00;;;;;;6244609;23;20513;-87
2024/04/15 10:28:05;;;;;;;4.27;2.10;;;13.80;1.00;;;;;;6244604;22;20483;-87
2024/04/15 10:30:36;;;;;;;3.10;2.53;;;14.00;1.00;;;;;;6244774;23;20447;-87
2024/04/15 10:33:04;;;;;;;3.47;2.20;;;13.60;1.00;;;;;;6242673;23;20451;-87
2024/04/15 10:35:35;;;;;;;5.13;2.80;;;13.50;1.00;;;;;;6243798;23;20451;-87
2024/04/15 10:38:02;;;;;;;7.90;2.73;;;13.30;1.00;;;;;;6243194;22;20467;-87
2024/04/15 10:40:32;;;;;;;2.70;2.50;;;13.30;1.00;;;;;;6244295;23;20971;-87
2024/04/15 10:43:00;;;;;;;4.87;2.20;;;13.20;1.00;;;;;;6242990;23;20523;-87
2024/04/15 10:45:31;;;;;;;2.40;2.10;;;12.90;1.00;;;;;;6241265;23;20523;-88
2024/04/15 10:47:58;;;;;;;4.90;2.00;;;12.50;1.00;;;;;;6242133;22;20919;-88
2024/04/15 10:50:26;;;;;;;2.73;2.23;;;13.00;1.00;;;;;;6242611;23;20527;-88
2024/04/15 10:52:53;;;;;;;2.90;2.70;;;13.30;1.00;;;;;;6244878;23;20503;-88
2024/04/15 10:55:23;;;;;;;6.10;2.20;;;13.30;1.00;;;;;;6240293;23;20502;-88
2024/04/15 10:57:52;;;;;;;3.87;2.43;;;13.60;1.00;;;;;;6239195;22;20467;-88
2024/04/15 11:00:21;;;;;;;2.77;2.53;;;13.70;1.00;;;;;;6239180;23;20505;-88
2024/04/15 11:02:55;;;;;;;5.90;2.33;;;13.70;1.00;;;;;;6240525;23;20574;-88
2024/04/15 11:05:22;;;;;;;3.57;2.20;;;13.90;1.00;;;;;;6240588;23;20522;-87
2024/04/15 11:07:53;;;;;;;3.00;2.70;;;13.80;1.00;;;;;;6239886;22;20447;-87
2024/04/15 11:10:20;;;;;;;5.33;2.50;;;13.70;1.00;;;;;;6240630;23;20464;-89
2024/04/15 11:12:53;;;;;;;2.90;2.70;;;13.60;1.00;;;;;;6241712;23;20560;-87
2024/04/15 11:15:21;;;;;;;3.10;2.40;;;13.50;1.00;;;;;;6243408;23;20507;-87
2024/04/15 11:17:55;;;;;;;4.83;3.00;;;13.50;1.00;;;;;;6241796;22;20455;-88
2024/04/15 11:20:21;;;;;;;5.67;3.00;;;13.40;1.00;;;;;;6246685;23;20471;-86
2024/04/15 11:22:51;;;;;;;2.83;2.63;;;13.40;1.00;;;;;;6254751;23;20523;-87
2024/04/15 11:25:18;;;;;;;5.93;2.30;;;13.50;1.00;;;;;;6245663;23;20547;-88
2024/04/15 11:27:49;;;;;;;4.43;2.70;;;13.60;1.00;;;;;;6243797;22;20491;-87
2024/04/15 11:30:20;;;;;;;5.83;3.80;;;13.60;1.00;;;;;;6249335;23;20459;-88
2024/04/15 11:32:52;;;;;;;2.70;2.50;;;13.80;1.00;;;;;;6251078;23;20463;-88
2024/04/15 11:35:19;;;;;;;3.73;2.50;;;13.80;1.00;;;;;;6250448;23;20471;-87
2024/04/15 11:37:54;;;;;;;2.80;2.50;;;13.50;1.00;;;;;;6241995;22;20542;-87
2024/04/15 11:40:20;;;;;;;6.90;3.17;;;13.20;1.00;;;;;;6242330;23;20470;-88
2024/04/15 11:42:49;;;;;;;9.30;5.67;;;12.90;1.00;;;;;;6240632;23;20530;-88
2024/04/15 11:45:15;;;;;;;6.33;4.10;;;12.90;1.00;;;;;;6240612;23;20510;-88
2024/04/15 11:47:44;;;;;;;4.00;3.60;;;12.70;25.10;;;;;;6240821;22;20597;-88
2024/04/15 11:50:13;;;;;;;4.23;3.77;;;;;;;;;;6242795;23;20435;-87
2024/04/15 11:52:41;;;;;;;3.97;3.67;;;12.80;44.60;;;;;;6243567;23;20459;-87
2024/04/15 11:55:14;;;;;;;9.07;5.23;;;12.90;19.30;;;;;;6244003;23;20507;-87
2024/04/15 11:57:43;;;;;;;9.40;6.20;;;13.00;4.90;;;;;;6245111;22;20467;-87
2024/04/15 12:00:11;;;;;;;5.50;5.00;;;13.10;1.00;;;;;;6245403;23;20447;-88
2024/04/15 12:02:40;;;;;;;7.50;6.47;;;13.30;1.00;;;;;;6243005;23;20514;-87
2024/04/15 12:05:06;;;;;;;5.70;5.20;;;13.30;1.00;;;;;;6242654;23;20490;-88
2024/04/15 12:07:44;;;;;;;8.63;5.30;;;13.20;1.00;;;;;;6240747;22;20475;-88
2024/04/15 12:10:11;;;;;;;7.17;6.10;;;13.40;1.00;;;;;;6241251;23;20515;-89
2024/04/15 12:12:41;;;;;;;8.40;5.60;;;13.50;1.00;;;;;;6259763;22;20513;-87
2024/04/15 12:15:10;;;;;;;7.63;6.07;;;13.40;1.00;;;;;;6259962;22;20451;-87
2024/04/15 12:17:39;;;;;;;8.60;5.50;;;;;;;;;;6259904;22;20455;-86
2024/04/15 12:20:07;;;;;;;6.53;5.37;;;14.00;1.00;;;;;;6259984;22;20447;-87
2024/04/15 12:22:38;;;;;;;5.47;4.37;;;14.00;1.00;;;;;;6259452;22;20454;-87
2024/04/15 12:25:05;;;;;;;5.67;5.17;;;14.10;1.00;;;;;;6240568;23;20440;-88
2024/04/15 12:27:34;;;;;;;7.33;6.23;;;13.90;1.00;;;;;;6240433;22;20483;-88
2024/04/15 12:30:04;;;;;;;11.60;7.33;;;13.80;1.00;;;;;;6240594;23;20522;-88
2024/04/15 12:32:39;;;;;;;6.40;5.53;;;13.70;1.00;;;;;;6240809;23;20431;-88
2024/04/15 12:35:06;;;;;;;9.40;6.40;;;13.80;1.00;;;;;;6247985;23;20581;-87
2024/04/15 12:37:38;;;;;;;5.90;5.40;;;13.90;1.00;;;;;;6245828;22;20471;-88
2024/04/15 12:40:07;;;;;;;6.50;6.10;;;13.90;1.00;;;;;;6244458;23;20850;-88
2024/04/15 12:42:36;;;;;;;5.33;4.83;;;14.10;1.00;;;;;;6245426;23;20498;-88
2024/04/15 12:45:02;;;;;;;6.60;5.20;;;14.40;1.00;;;;;;6246073;23;20454;-88
2024/04/15 12:47:31;;;;;;;9.63;5.60;;;14.30;1.00;;;;;;6255415;22;20467;-87
2024/04/15 12:49:57;;;;;;;6.90;6.30;;;13.90;1.00;;;;;;6253880;23;20457;-87
2024/04/15 12:52:25;;;;;;;6.50;5.90;;;13.80;1.00;;;;;;6249215;23;20458;-88
2024/04/15 12:54:54;;;;;;;6.00;5.60;;;13.80;1.00;;;;;;6254035;23;20546;-87
2024/04/15 12:57:23;;;;;;;8.07;6.87;;;13.80;1.00;;;;;;6252496;22;20462;-88
2024/04/15 12:59:50;;;;;;;6.67;6.17;;;;;;;;;;6248395;23;20443;-88
2024/04/15 13:02:19;;;;;;;7.17;6.60;;;14.00;1.00;;;;;;6240661;23;20523;-88
2024/04/15 13:04:45;;;;;;;7.20;6.60;;;;;;;;;;6240837;23;20478;-88